Time;durP1;ratioP1;P1;durP2;ratioP2;P2;SDS_P1;SDS_P2;PMS_P1;PMS_P2;Temp;Humidity;BMP_temperature;BMP_pressure;BME280_temperature;BME280_humidity;BME280_pressure;Samples;Min_cycle;Max_cycle;Signal;HPM_P1;HPM_P2
2022/08/13 00:01:25;;;;;;;;;14.00;13.33;;;;;26.82;46.81;100982.16;4942961;28;47499;-93
2022/08/13 00:03:55;;;;;;;;;13.00;13.00;;;;;26.80;46.91;100978.59;4939172;28;45958;-93
2022/08/13 00:09:08;;;;;;;;;15.33;13.00;;;;;26.67;47.45;100977.00;4962281;28;45456;-93
2022/08/13 00:14:22;;;;;;;;;16.00;14.33;;;;;26.59;47.31;100975.41;4962007;28;45450;-93
2022/08/13 00:16:48;;;;;;;;;15.00;15.00;;;;;26.58;47.51;100987.97;4940000;28;45353;-93
2022/08/13 00:19:14;;;;;;;;;13.33;12.00;;;;;26.53;47.52;100982.66;4955113;28;45773;-93
2022/08/13 00:21:39;;;;;;;;;12.67;11.67;;;;;26.48;47.69;100979.16;4956796;28;45658;-94
2022/08/13 00:24:05;;;;;;;;;14.00;13.67;;;;;26.45;47.58;100976.53;4956060;28;45218;-94
2022/08/13 00:26:31;;;;;;;;;14.00;14.00;;;;;26.39;48.00;100976.63;4939224;28;45205;-94
2022/08/13 00:28:57;;;;;;;;;14.00;12.00;;;;;26.38;48.19;100977.53;4938838;28;45482;-94
2022/08/13 00:31:23;;;;;;;;;16.00;14.00;;;;;26.37;48.10;100979.31;4939375;28;56929;-93
2022/08/13 00:33:48;;;;;;;;;11.00;11.00;;;;;26.33;47.95;100977.59;4938580;28;45423;-94
2022/08/13 00:36:16;;;;;;;;;12.33;12.00;;;;;26.33;48.08;100981.19;4941653;28;45321;-93
2022/08/13 00:38:44;;;;;;;;;14.00;12.00;;;;;26.27;48.21;100983.97;4964740;28;45300;-94
2022/08/13 00:41:37;;;;;;;;;16.00;16.00;;;;;26.26;48.04;100984.88;4965142;28;45568;-94
2022/08/13 00:43:57;;;;;;;;;13.33;13.33;;;;;26.21;48.00;100981.38;4956526;28;45447;-94
2022/08/13 00:46:23;;;;;;;;;11.67;10.00;;;;;26.19;48.10;100988.59;4956848;28;45419;-93
2022/08/13 00:48:48;;;;;;;;;13.00;11.00;;;;;26.15;47.86;100984.19;4955930;28;45419;-94
2022/08/13 00:51:16;;;;;;;;;12.00;12.00;;;;;26.13;47.83;100994.09;4956619;28;46188;-94
2022/08/13 00:53:43;;;;;;;;;10.67;10.67;;;;;26.02;48.07;100981.69;4966540;28;45423;-94
2022/08/13 00:56:10;;;;;;;;;11.00;10.67;;;;;26.04;47.90;100990.63;4975524;28;45258;-93
2022/08/13 00:58:36;;;;;;;;;13.33;11.00;;;;;26.02;48.03;100988.88;4958807;28;45585;-95
2022/08/13 01:01:04;;;;;;;;;13.67;12.67;;;;;26.00;48.23;100991.59;4958058;28;48469;-94
2022/08/13 01:03:32;;;;;;;;;10.67;10.67;;;;;25.97;47.80;100986.25;4958483;28;45453;-93
2022/08/13 01:05:59;;;;;;;;;11.67;11.00;;;;;25.92;48.33;100985.44;4966013;28;45338;-93
2022/08/13 01:08:26;;;;;;;;;12.33;10.00;;;;;25.93;47.90;100989.88;4986338;28;45306;-94
2022/08/13 01:10:56;;;;;;;;;13.67;13.67;;;;;25.89;47.99;100987.28;4983770;28;45510;-94
2022/08/13 01:13:25;;;;;;;;;8.67;8.33;;;;;25.86;48.05;100990.00;4962026;28;45600;-93
2022/08/13 01:15:51;;;;;;;;;11.00;9.00;;;;;25.81;48.34;100990.97;4961086;28;45449;-93
2022/08/13 01:18:24;;;;;;;;;9.67;9.00;;;;;25.76;48.48;100989.25;4961681;28;45275;-93
2022/08/13 01:21:08;;;;;;;;;11.00;9.00;;;;;25.76;48.22;100997.31;4978572;28;46539;-93
2022/08/13 01:23:34;;;;;;;;;12.00;9.33;;;;;25.70;48.07;100988.41;4941573;28;45364;-93
2022/08/13 01:26:01;;;;;;;;;9.33;9.33;;;;;25.69;48.34;100990.22;4975165;28;45544;-93
2022/08/13 01:28:28;;;;;;;;;8.67;7.33;;;;;25.68;48.62;100983.06;4978978;28;45366;-94
2022/08/13 01:30:56;;;;;;;;;8.00;8.00;;;;;25.65;48.37;100988.47;4978646;28;45457;-94
2022/08/13 01:33:23;;;;;;;;;7.00;7.00;;;;;25.62;48.36;100991.19;4983553;28;45303;-94
2022/08/13 01:35:49;;;;;;;;;8.67;8.00;;;;;25.57;48.15;100983.19;4964378;28;45351;-94
2022/08/13 01:38:16;;;;;;;;;8.67;8.00;;;;;25.59;47.86;100989.44;4967074;28;45423;-93
2022/08/13 01:40:42;;;;;;;;;9.00;8.00;;;;;25.55;48.21;100985.94;4941905;28;47097;-93
2022/08/13 01:43:08;;;;;;;;;4.33;4.00;;;;;25.53;48.03;100986.84;4959206;28;45346;-93
2022/08/13 01:45:34;;;;;;;;;8.67;8.00;;;;;25.56;48.14;100992.19;4941297;28;45418;-94
2022/08/13 01:50:44;;;;;;;;;7.00;7.00;;;;;25.55;48.19;100993.97;4958747;28;45930;-94
2022/08/13 01:53:13;;;;;;;;;7.00;7.00;;;;;25.55;48.10;100995.78;4958457;28;45529;-93
2022/08/13 01:55:54;;;;;;;;;8.00;8.00;;;;;25.52;48.05;100991.34;4958404;28;45444;-93
2022/08/13 01:58:22;;;;;;;;;7.00;7.00;;;;;25.52;48.24;100990.44;4958867;28;45414;-95
2022/08/13 02:00:54;;;;;;;;;7.33;7.00;;;;;25.48;48.25;100994.09;4941320;28;48349;-93
2022/08/13 02:03:20;;;;;;;;;7.33;7.33;;;;;25.48;48.36;100996.78;4950020;28;46011;-94
2022/08/13 02:05:47;;;;;;;;;6.67;6.67;;;;;25.43;48.27;100995.06;4967007;28;45407;-94
2022/08/13 02:08:14;;;;;;;;;7.67;7.67;;;;;25.38;48.10;100990.63;4960878;28;45664;-93
2022/08/13 02:10:42;;;;;;;;;8.67;7.00;;;;;25.38;48.17;100996.91;4941514;28;48488;-94
2022/08/13 02:13:13;;;;;;;;;11.67;9.00;;;;;25.35;48.34;100998.72;4941378;28;45526;-93
2022/08/13 02:15:39;;;;;;;;;5.67;5.67;;;;;25.32;48.42;100999.66;4958203;28;45220;-94
2022/08/13 02:18:05;;;;;;;;;8.00;6.67;;;;;25.26;48.25;100994.34;4958800;28;45315;-93
2022/08/13 02:20:34;;;;;;;;;7.67;7.67;;;;;25.26;48.19;100994.34;4957147;28;45354;-93
2022/08/13 02:23:00;;;;;;;;;7.00;7.00;;;;;25.20;48.16;100998.88;4958101;28;45401;-93
2022/08/13 02:25:28;;;;;;;;;8.00;8.00;;;;;25.20;48.59;101003.41;4952310;28;45402;-94
2022/08/13 02:27:55;;;;;;;;;7.33;7.00;;;;;25.16;48.44;101002.53;4961023;28;45653;-93
2022/08/13 02:30:21;;;;;;;;;6.00;6.00;;;;;25.11;48.67;100993.63;4964002;28;47350;-93
2022/08/13 02:32:47;;;;;;;;;8.33;6.67;;;;;25.07;48.75;100992.81;4969366;28;45297;-94
2022/08/13 02:35:17;;;;;;;;;6.33;6.33;;;;;25.03;48.71;101015.19;4968196;28;45482;-94
2022/08/13 02:37:44;;;;;;;;;5.67;5.67;;;;;25.00;48.78;101004.47;4940030;28;45726;-94
2022/08/13 02:41:38;;;;;;;;;5.33;5.33;;;;;24.94;48.63;100999.19;4937489;28;48411;-93
2022/08/13 02:42:59;;;;;;;;;7.00;7.00;;;;;24.90;48.94;100995.63;4938960;28;45389;-94
2022/08/13 02:45:27;;;;;;;;;8.00;7.33;;;;;24.86;49.10;101002.84;4939873;28;45339;-92
2022/08/13 02:47:54;;;;;;;;;8.67;8.33;;;;;24.81;48.73;100998.41;4940919;28;45276;-94
2022/08/13 02:50:21;;;;;;;;;8.33;7.33;;;;;24.78;48.71;100999.34;4955995;28;46480;-93
2022/08/13 02:52:51;;;;;;;;;9.67;7.00;;;;;24.73;49.11;100994.03;4957874;28;45292;-93
2022/08/13 02:55:18;;;;;;;;;7.00;7.00;;;;;24.71;49.41;100997.63;4940582;28;45428;-94
2022/08/13 02:57:43;;;;;;;;;9.67;8.00;;;;;24.65;49.12;100999.47;4940724;28;45374;-94
2022/08/13 03:00:09;;;;;;;;;9.00;8.00;;;;;24.62;49.31;100993.22;4965030;28;45949;-92
2022/08/13 03:02:42;;;;;;;;;7.00;7.00;;;;;24.59;49.33;100996.81;4949539;28;45503;-93
2022/08/13 03:05:20;;;;;;;;;9.33;7.00;;;;;24.52;49.25;100996.00;4945681;28;45403;-94
2022/08/13 03:07:48;;;;;;;;;8.00;5.33;;;;;24.53;49.86;101007.63;4940500;28;45463;-93
2022/08/13 03:10:16;;;;;;;;;7.67;7.33;;;;;24.46;49.65;100998.72;4940150;28;47241;-94
2022/08/13 03:12:47;;;;;;;;;7.67;7.33;;;;;24.42;50.03;100995.19;4940805;28;45478;-94
2022/08/13 03:15:13;;;;;;;;;7.00;7.00;;;;;24.41;50.08;100996.09;4957155;28;45449;-93
2022/08/13 03:17:40;;;;;;;;;9.33;8.33;;;;;24.38;50.19;100988.06;4957575;28;45225;-93
2022/08/13 03:20:08;;;;;;;;;8.67;8.00;;;;;24.35;50.41;100987.22;4955513;28;47501;-94
2022/08/13 03:22:56;;;;;;;;;8.00;7.00;;;;;24.31;50.27;100984.56;4957543;28;45277;-94
2022/08/13 03:25:25;;;;;;;;;9.00;9.00;;;;;24.29;50.95;100972.06;4939996;28;45559;-93
2022/08/13 03:27:52;;;;;;;;;9.00;7.00;;;;;24.24;51.34;100965.81;4940530;28;45418;-94
2022/08/13 03:30:21;;;;;;;;;10.00;9.33;;;;;24.21;51.48;100972.09;4965352;28;47274;-95
2022/08/13 03:32:48;;;;;;;;;11.33;10.00;;;;;24.18;51.79;100973.00;4948984;28;45249;-93
2022/08/13 03:35:24;;;;;;;;;10.33;10.33;;;;;24.15;52.40;100962.31;4944429;28;45411;-94
2022/08/13 03:37:53;;;;;;;;;13.00;11.00;;;;;24.15;52.66;100958.72;4957497;28;45383;-93
2022/08/13 03:40:24;;;;;;;;;12.00;12.00;;;;;24.10;53.05;100962.34;4956994;28;46464;-94
2022/08/13 03:42:51;;;;;;;;;9.67;9.67;;;;;24.08;53.03;100958.78;4940151;28;45430;-93
2022/08/13 03:45:18;;;;;;;;;9.00;8.00;;;;;24.08;53.56;100964.16;4939731;28;45450;-93
2022/08/13 03:47:44;;;;;;;;;10.00;10.00;;;;;24.06;53.61;100965.97;4957356;28;45412;-94
2022/08/13 03:50:11;;;;;;;;;10.67;10.67;;;;;24.00;53.32;100957.94;4939137;28;47232;-94
2022/08/13 03:52:38;;;;;;;;;9.67;9.67;;;;;24.00;53.53;100949.91;4957080;28;45420;-94
2022/08/13 03:55:10;;;;;;;;;9.00;9.00;;;;;23.99;53.49;100962.41;4939370;28;45505;-94
2022/08/13 03:57:41;;;;;;;;;9.33;9.00;;;;;23.95;53.58;100958.00;4939783;28;45434;-94
2022/08/13 04:00:11;;;;;;;;;9.33;9.00;;;;;23.92;53.67;100959.78;4948353;28;46298;-93
2022/08/13 04:02:40;;;;;;;;;9.00;8.67;;;;;23.90;53.95;100965.19;4969160;28;45330;-94
2022/08/13 04:05:13;;;;;;;;;9.00;8.67;;;;;23.86;53.94;100953.56;4961612;28;45396;-93
2022/08/13 04:07:39;;;;;;;;;8.33;8.33;;;;;23.82;53.95;100951.81;4939774;28;45408;-94
2022/08/13 04:10:06;;;;;;;;;9.00;9.00;;;;;23.81;53.98;100950.03;4956558;28;45481;-91
2022/08/13 04:12:31;;;;;;;;;11.33;9.00;;;;;23.75;54.23;100940.28;4939622;28;45705;-95
2022/08/13 04:14:57;;;;;;;;;8.00;8.00;;;;;23.75;54.46;100947.41;4956321;28;46691;-93
2022/08/13 04:17:22;;;;;;;;;10.00;9.00;;;;;23.73;54.40;100952.81;4956154;28;59423;-94
2022/08/13 04:19:47;;;;;;;;;16.67;12.33;;;;;23.70;54.83;100941.19;4955820;28;63261;-93
2022/08/13 04:22:13;;;;;;;;;12.00;11.00;;;;;23.67;54.80;100936.75;4939745;28;45371;-93
2022/08/13 04:24:39;;;;;;;;;12.00;11.00;;;;;23.63;54.85;100925.16;4939096;28;45449;-93
2022/08/13 04:27:05;;;;;;;;;9.33;9.33;;;;;23.62;55.14;100926.06;4956753;28;45364;-93
2022/08/13 04:29:31;;;;;;;;;12.00;10.33;;;;;23.60;55.55;100924.28;4946223;28;47425;-95
2022/08/13 04:31:59;;;;;;;;;10.67;10.00;;;;;23.55;55.21;100922.50;4948132;28;45320;-94
2022/08/13 04:34:26;;;;;;;;;11.00;9.33;;;;;23.50;55.47;100912.75;4948077;28;45426;-94
2022/08/13 04:36:52;;;;;;;;;11.33;10.33;;;;;23.48;55.93;100922.53;4981002;23;45275;-95
2022/08/13 04:39:17;;;;;;;;;9.67;9.67;;;;;23.45;56.14;100904.72;4981573;28;46544;-94
2022/08/13 04:41:43;;;;;;;;;12.33;10.33;;;;;23.43;56.11;100904.72;4976895;28;45422;-94
2022/08/13 04:44:08;;;;;;;;;11.67;11.33;;;;;23.41;55.94;100903.84;4961988;28;45246;-94
2022/08/13 04:46:34;;;;;;;;;7.67;7.67;;;;;23.37;55.55;100909.22;4979420;28;45473;-95
2022/08/13 04:48:59;;;;;;;;;8.67;8.00;;;;;23.42;55.05;100920.81;4979544;28;51748;-95
2022/08/13 04:51:25;;;;;;;;;7.00;7.00;;;;;23.40;54.75;100914.56;4961796;28;66216;-95
2022/08/13 04:53:51;;;;;;;;;1.33;1.00;;;;;23.43;54.68;100927.91;4978019;28;45294;-95
2022/08/13 04:56:17;;;;;;;;;7.33;7.33;;;;;23.40;54.30;100928.81;4979800;28;45372;-95
2022/08/13 04:58:42;;;;;;;;;6.00;6.00;;;;;23.42;54.03;100929.72;4985021;28;46285;-93
2022/08/13 05:01:11;;;;;;;;;5.33;5.33;;;;;23.36;53.94;100919.03;5120449;23;46043;-94
2022/08/13 05:03:41;;;;;;;;;5.33;5.33;;;;;23.46;53.70;100933.25;4987142;28;45365;-95
2022/08/13 05:06:11;;;;;;;;;7.00;7.00;;;;;23.52;53.83;100940.41;4963618;28;45971;-95
2022/08/13 05:08:37;;;;;;;;;11.67;6.00;;;;;23.52;53.84;100933.28;4962685;28;46930;-94
2022/08/13 05:11:02;;;;;;;;;5.00;5.00;;;;;23.59;53.83;100933.22;4961767;28;45574;-94
2022/08/13 05:13:34;;;;;;;;;5.33;4.00;;;;;23.59;53.80;100930.53;4979527;28;45324;-94
2022/08/13 05:16:01;;;;;;;;;3.67;3.33;;;;;23.62;53.73;100944.81;4978788;28;45339;-95
2022/08/13 05:18:29;;;;;;;;;8.00;6.00;;;;;23.71;53.40;100959.94;4979347;28;45399;-94
2022/08/13 05:20:57;;;;;;;;;6.33;6.33;;;;;23.68;53.76;100945.69;4961691;28;45485;-95
2022/08/13 05:23:25;;;;;;;;;6.00;6.00;;;;;23.78;53.46;100958.13;4961572;28;45337;-96
2022/08/13 05:25:52;;;;;;;;;6.00;6.00;;;;;23.80;53.36;100961.69;4961302;28;45368;-95
2022/08/13 05:28:18;;;;;;;;;5.33;5.33;;;;;23.85;53.35;100965.22;4967979;28;47054;-95
2022/08/13 05:30:47;;;;;;;;;7.00;7.00;;;;;23.91;53.20;100963.41;4969279;28;45477;-94
2022/08/13 05:33:24;;;;;;;;;6.00;6.00;;;;;23.96;53.00;100962.47;4987688;28;45311;-95
2022/08/13 05:35:52;;;;;;;;;7.00;4.00;;;;;24.05;53.06;100965.97;4960382;28;45424;-94
2022/08/13 05:38:22;;;;;;;;;8.00;6.33;;;;;24.11;52.64;100966.81;4959128;28;46401;-94
2022/08/13 05:40:53;;;;;;;;;5.00;5.00;;;;;24.21;52.50;100964.94;4941840;28;45354;-94
2022/08/13 05:43:22;;;;;;;;;5.67;5.67;;;;;24.30;52.48;100960.44;4959410;28;45355;-94
2022/08/13 05:45:57;;;;;;;;;5.67;5.67;;;;;24.40;52.26;100958.56;4941482;28;45411;-95
2022/08/13 05:48:38;;;;;;;;;7.67;6.00;;;;;24.51;52.49;100964.69;4941505;28;47372;-94
2022/08/13 05:51:08;;;;;;;;;6.67;6.67;;;;;24.55;51.98;100969.16;4941712;28;45408;-95
2022/08/13 05:53:36;;;;;;;;;5.00;5.00;;;;;24.66;51.96;100979.75;4958074;28;45376;-94
2022/08/13 05:56:02;;;;;;;;;8.00;6.33;;;;;24.72;51.77;100972.53;4959120;28;45343;-94
2022/08/13 05:58:28;;;;;;;;;5.00;5.00;;;;;24.84;51.60;100979.59;4965735;28;47150;-94
2022/08/13 06:03:38;;;;;;;;;5.67;5.00;;;;;25.00;50.95;100982.97;4982031;28;45656;-95
2022/08/13 06:06:07;;;;;;;;;4.00;4.00;;;;;25.09;51.10;100982.03;4961386;28;45518;-94
2022/08/13 06:08:36;;;;;;;;;5.00;5.00;;;;;25.16;50.72;100985.53;4977563;28;45422;-95
2022/08/13 06:11:06;;;;;;;;;8.00;5.00;;;;;25.26;50.57;101002.41;4960747;28;45755;-95
2022/08/13 06:13:35;;;;;;;;;6.00;6.00;;;;;25.31;50.55;100989.81;4960761;28;45383;-94
2022/08/13 06:16:03;;;;;;;;;6.00;5.33;;;;;25.36;50.33;100981.72;4960197;28;45597;-95
2022/08/13 06:18:31;;;;;;;;;7.67;7.33;;;;;25.46;50.24;100993.22;4977900;28;45403;-94
2022/08/13 06:20:58;;;;;;;;;5.00;4.00;;;;;25.50;49.97;100989.56;4960561;28;45429;-95
2022/08/13 06:23:25;;;;;;;;;6.33;5.33;;;;;25.60;49.90;100995.72;4977850;28;45347;-94
2022/08/13 06:25:52;;;;;;;;;6.00;5.67;;;;;25.64;49.69;100992.09;4974026;28;45648;-94
2022/08/13 06:28:25;;;;;;;;;7.00;6.00;;;;;25.75;49.78;101000.00;4968166;28;46226;-94
2022/08/13 06:30:53;;;;;;;;;6.00;4.00;;;;;25.79;49.55;100996.38;4986149;28;45340;-95
2022/08/13 06:33:22;;;;;;;;;4.00;4.00;;;;;25.86;49.69;101000.75;4981244;28;45401;-94
2022/08/13 06:35:54;;;;;;;;;6.00;6.00;;;;;25.95;49.34;100998.84;4960460;28;45608;-93
2022/08/13 06:38:22;;;;;;;;;4.67;4.00;;;;;25.99;48.93;101000.56;4959054;28;45366;-94
2022/08/13 06:40:48;;;;;;;;;3.33;3.33;;;;;26.07;49.05;100998.66;4940914;28;45372;-95
2022/08/13 06:43:19;;;;;;;;;4.33;4.33;;;;;26.10;48.73;100995.91;4941331;28;45471;-95
2022/08/13 06:45:48;;;;;;;;;5.67;5.67;;;;;26.17;48.84;100995.78;4962373;28;45428;-94
2022/08/13 06:48:14;;;;;;;;;6.50;6.00;;;;;26.21;48.80;100998.41;4959854;28;46350;-94
2022/08/13 06:50:39;;;;;;;;;5.00;5.00;;;;;26.29;48.96;101000.97;4967129;28;45347;-94
2022/08/13 06:53:07;;;;;;;;;7.67;7.67;;;;;26.35;49.28;100999.97;4958094;28;45331;-95
2022/08/13 06:55:36;;;;;;;;;6.00;6.00;;;;;26.43;48.49;100994.47;4962895;28;45499;-94
2022/08/13 06:58:03;;;;;;;;;6.00;4.67;;;;;26.50;48.61;101003.34;4965203;28;46339;-95
2022/08/13 07:00:30;;;;;;;;;6.00;4.33;;;;;26.50;48.54;100993.47;4965754;28;45303;-95
2022/08/13 07:02:56;;;;;;;;;3.33;3.33;;;;;26.59;48.24;100999.63;4944730;28;45257;-95
2022/08/13 07:05:38;;;;;;;;;5.00;5.00;;;;;26.62;48.34;101002.25;4959379;28;45455;-94
2022/08/13 07:08:07;;;;;;;;;4.00;3.33;;;;;26.69;48.23;101005.72;4977330;28;45607;-95
2022/08/13 07:10:33;;;;;;;;;4.00;4.00;;;;;26.76;47.95;101005.56;4976949;28;45591;-94
2022/08/13 07:13:00;;;;;;;;;6.00;5.00;;;;;26.82;48.10;101009.06;4981818;28;45309;-94
2022/08/13 07:15:26;;;;;;;;;5.33;5.33;;;;;26.88;47.87;101007.13;4982353;28;45462;-95
2022/08/13 07:17:53;;;;;;;;;3.67;3.67;;;;;26.95;47.97;101013.31;4959596;28;48334;-94
2022/08/13 07:20:20;;;;;;;;;8.33;5.00;;;;;26.98;47.67;101010.53;4959630;28;45340;-94
2022/08/13 07:22:45;;;;;;;;;6.33;6.33;;;;;27.08;47.80;101016.66;4960310;28;45561;-93
2022/08/13 07:25:11;;;;;;;;;6.00;6.00;;;;;27.11;47.54;101013.88;4967725;28;45233;-95
2022/08/13 07:27:39;;;;;;;;;5.00;4.00;;;;;27.18;47.73;101012.00;4967908;28;46349;-95
2022/08/13 07:30:06;;;;;;;;;5.67;5.00;;;;;27.24;47.60;101016.34;4980931;28;45462;-95
2022/08/13 07:32:36;;;;;;;;;6.00;6.00;;;;;27.28;47.63;101007.31;4977807;28;45345;-94
2022/08/13 07:35:03;;;;;;;;;6.00;6.00;;;;;27.37;47.67;101027.75;4965773;28;45542;-94
2022/08/13 07:37:28;;;;;;;;;4.67;4.67;;;;;27.42;47.37;101025.84;4977549;28;47500;-96
2022/08/13 07:39:54;;;;;;;;;5.00;5.00;;;;;27.51;47.46;101034.66;4966195;28;45399;-93
2022/08/13 07:42:21;;;;;;;;;5.00;5.00;;;;;27.55;47.54;101026.47;4979989;28;45344;-94
2022/08/13 07:44:52;;;;;;;;;4.00;4.00;;;;;27.67;47.41;101036.13;4979154;28;45395;-93
2022/08/13 07:47:19;;;;;;;;;6.00;5.00;;;;;27.76;47.52;101026.94;4961437;28;47226;-94
2022/08/13 07:49:45;;;;;;;;;6.33;5.00;;;;;27.82;47.10;101017.84;4980027;28;45367;-95
2022/08/13 07:52:13;;;;;;;;;5.00;5.00;;;;;27.92;47.28;101026.59;4985972;28;45366;-94
2022/08/13 07:54:43;;;;;;;;;6.33;6.33;;;;;28.03;47.26;101023.66;4971600;28;45394;-94
2022/08/13 07:57:09;;;;;;;;;6.00;4.67;;;;;28.12;46.75;101030.63;4965154;28;47268;-93
2022/08/13 07:59:36;;;;;;;;;3.00;3.00;;;;;28.20;46.53;101023.25;4960883;28;45453;-93
2022/08/13 08:02:04;;;;;;;;;4.00;4.00;;;;;28.30;46.78;101023.91;4983157;28;45537;-95
2022/08/13 08:04:30;;;;;;;;;4.67;4.67;;;;;28.38;46.59;101026.41;4961424;28;45380;-93
2022/08/13 08:06:57;;;;;;;;;4.67;4.67;;;;;28.47;46.51;101033.44;4961315;28;47175;-93
2022/08/13 08:09:29;;;;;;;;;6.00;4.67;;;;;28.52;46.54;101033.31;4983668;28;45415;-92
2022/08/13 08:14:41;;;;;;;;;3.33;3.00;;;;;28.69;46.31;101023.84;4961355;28;45304;-93
2022/08/13 08:17:11;;;;;;;;;8.00;5.00;;;;;28.80;45.93;101031.66;4943740;28;47006;-93
2022/08/13 08:19:41;;;;;;;;;7.00;7.00;;;;;28.89;46.06;101036.81;4951585;28;45371;-93
2022/08/13 08:22:10;;;;;;;;;5.00;4.00;;;;;28.97;45.74;101042.00;4950341;28;45436;-92
2022/08/13 08:24:37;;;;;;;;;5.00;4.00;;;;;29.03;46.00;101027.44;4953029;28;45382;-93
2022/08/13 08:27:10;;;;;;;;;4.67;4.67;;;;;29.16;45.73;101037.03;4981795;28;46627;-94
2022/08/13 08:29:36;;;;;;;;;6.00;5.00;;;;;29.22;45.68;101033.25;4961582;28;45405;-94
2022/08/13 08:32:08;;;;;;;;;5.33;5.00;;;;;29.30;45.60;101031.19;4963091;28;45488;-93
2022/08/13 08:34:37;;;;;;;;;5.00;5.00;;;;;29.37;45.38;101029.22;4960576;28;45616;-93
2022/08/13 08:37:04;;;;;;;;;5.33;5.00;;;;;29.50;45.18;101032.44;4956434;28;47240;-94
2022/08/13 08:42:36;;;;;;;;;5.33;4.00;;;;;29.69;44.87;101026.44;4959775;28;45354;-94
2022/08/13 08:45:12;;;;;;;;;5.00;5.00;;;;;29.82;45.14;101037.81;4947157;28;45504;-93
2022/08/13 08:47:37;;;;;;;;;4.00;4.00;;;;;29.89;44.48;101033.97;4967261;28;45422;-93
2022/08/13 08:50:05;;;;;;;;;4.67;4.67;;;;;30.02;44.54;101040.81;4966745;28;45315;-94
2022/08/13 08:55:16;;;;;;;;;3.00;3.00;;;;;30.21;44.55;101039.28;4956421;28;45362;-94
2022/08/13 08:57:46;;;;;;;;;4.00;4.00;;;;;30.29;44.53;101041.72;4965715;28;45321;-93
2022/08/13 09:00:14;;;;;;;;;5.67;5.67;;;;;30.40;43.80;101043.22;4941207;28;45562;-93
2022/08/13 09:02:40;;;;;;;;;3.33;3.33;;;;;30.48;43.66;101040.25;4956878;28;45449;-93
2022/08/13 09:05:12;;;;;;;;;4.33;4.33;;;;;30.54;43.64;101032.78;4947230;28;45474;-94
2022/08/13 09:07:39;;;;;;;;;5.00;4.00;;;;;30.62;43.66;101037.94;4957776;28;47579;-94
2022/08/13 09:10:05;;;;;;;;;4.00;2.67;;;;;30.67;43.44;101033.25;4961706;28;45485;-94
2022/08/13 09:12:31;;;;;;;;;6.67;6.00;;;;;30.76;43.33;101031.16;4966690;28;45348;-94
2022/08/13 09:14:58;;;;;;;;;4.33;4.33;;;;;30.86;43.43;101035.31;4964813;28;45341;-93
2022/08/13 09:17:25;;;;;;;;;4.00;4.00;;;;;30.94;43.51;101032.34;4957805;28;47476;-93
2022/08/13 09:19:50;;;;;;;;;5.33;5.00;;;;;30.99;43.58;101030.34;4959492;28;45389;-94
2022/08/13 09:22:21;;;;;;;;;5.00;3.00;;;;;31.06;43.45;101024.69;4958178;28;48088;-94
2022/08/13 09:24:48;;;;;;;;;3.00;3.00;;;;;31.17;43.11;101029.72;4961487;28;45437;-93
2022/08/13 09:27:17;;;;;;;;;5.00;5.00;;;;;31.25;42.64;101034.84;4957019;28;45493;-94
2022/08/13 09:29:44;;;;;;;;;4.00;4.00;;;;;31.33;42.53;101030.94;4957708;28;45469;-93
2022/08/13 09:32:10;;;;;;;;;3.33;3.00;;;;;31.41;42.21;101036.06;4958434;28;45439;-93
2022/08/13 09:34:39;;;;;;;;;4.00;4.00;;;;;31.49;42.05;101026.72;4941317;28;45508;-94
2022/08/13 09:37:07;;;;;;;;;3.33;3.33;;;;;31.58;42.25;101034.53;4957544;28;48068;-94
2022/08/13 09:39:36;;;;;;;;;3.00;3.00;;;;;31.66;42.21;101032.41;4962172;28;46032;-92
2022/08/13 09:42:16;;;;;;;;;4.67;4.00;;;;;31.77;42.18;101034.69;4962436;28;45411;-93
2022/08/13 09:44:42;;;;;;;;;6.00;6.00;;;;;31.86;42.38;101036.13;4978621;28;45320;-93
2022/08/13 09:47:11;;;;;;;;;5.00;5.00;;;;;32.01;42.32;101037.34;4977426;28;46406;-93
2022/08/13 09:49:37;;;;;;;;;4.33;4.33;;;;;32.22;42.42;101031.09;4977458;28;45439;-93
2022/08/13 09:52:03;;;;;;;;;6.00;5.00;;;;;32.41;40.89;101028.50;4960870;28;45308;-94
2022/08/13 09:54:29;;;;;;;;;4.67;3.33;;;;;32.55;41.38;101030.59;4977116;28;45500;-93
2022/08/13 09:56:58;;;;;;;;;3.00;3.00;;;;;32.85;40.00;101028.47;4960629;28;48408;-93
2022/08/13 09:59:24;;;;;;;;;5.00;4.00;;;;;33.23;39.68;101016.81;4974316;28;45557;-93
2022/08/13 10:01:49;;;;;;;;;4.00;4.00;;;;;33.49;39.80;101012.00;4961235;28;45785;-94
2022/08/13 10:04:18;;;;;;;;;2.67;2.67;;;;;33.70;40.09;101019.19;4959729;28;45378;-93
2022/08/13 10:06:43;;;;;;;;;3.00;3.00;;;;;33.89;39.53;101014.63;4961977;28;47422;-93
2022/08/13 10:09:09;;;;;;;;;3.00;3.00;;;;;34.03;39.91;101013.06;4962094;28;45315;-93
2022/08/13 10:11:34;;;;;;;;;4.00;4.00;;;;;34.16;39.58;101016.03;4957759;28;45288;-94
2022/08/13 10:14:00;;;;;;;;;2.67;2.67;;;;;34.29;39.42;101013.56;4958376;28;45131;-94
2022/08/13 10:16:25;;;;;;;;;3.00;3.00;;;;;34.42;39.02;101008.41;4959346;28;45465;-95
2022/08/13 10:18:50;;;;;;;;;5.33;4.00;;;;;34.56;38.06;101004.03;4959505;28;45361;-95
2022/08/13 10:21:16;;;;;;;;;4.67;4.33;;;;;34.69;38.92;101020.63;4958428;28;45200;-94
2022/08/13 10:23:41;;;;;;;;;3.00;3.00;;;;;34.75;38.26;101005.81;4941027;28;45658;-94
2022/08/13 10:26:07;;;;;;;;;3.33;3.33;;;;;34.85;38.06;101006.22;4976717;28;45469;-95
2022/08/13 10:28:34;;;;;;;;;3.33;3.33;;;;;34.89;38.39;101007.81;4980449;28;45428;-95
2022/08/13 10:31:08;;;;;;;;;3.00;3.00;;;;;35.01;37.95;101006.25;4978976;28;45429;-94
2022/08/13 10:33:37;;;;;;;;;4.67;3.00;;;;;35.20;38.04;101003.38;4963733;28;45468;-94
2022/08/13 10:36:04;;;;;;;;;2.00;2.00;;;;;35.39;37.88;101002.41;4964990;28;47447;-94
2022/08/13 10:38:29;;;;;;;;;4.00;4.00;;;;;35.62;37.93;101002.03;4961849;28;45336;-94
2022/08/13 10:40:57;;;;;;;;;3.33;3.33;;;;;35.81;37.77;100999.13;4942449;28;45294;-94
2022/08/13 10:43:22;;;;;;;;;4.33;3.00;;;;;36.07;37.40;100998.59;4941243;28;45666;-94
2022/08/13 10:45:49;;;;;;;;;2.00;2.00;;;;;36.32;36.88;101003.47;4961964;28;45359;-94
2022/08/13 10:48:15;;;;;;;;;4.33;4.33;;;;;36.60;36.83;100995.44;4977767;28;45493;-94
2022/08/13 10:50:41;;;;;;;;;4.00;3.67;;;;;36.96;36.64;100993.25;4959844;28;45471;-93
2022/08/13 10:53:07;;;;;;;;;2.33;2.33;;;;;37.83;36.82;100985.00;4977289;28;45430;-95
2022/08/13 10:55:35;;;;;;;;;4.00;4.00;;;;;39.67;36.34;100986.81;4976955;28;45326;-93
2022/08/13 10:58:02;;;;;;;;;3.00;3.00;;;;;42.03;34.75;100993.09;4966983;28;45415;-94
2022/08/13 11:00:28;;;;;;;;;4.00;3.00;;;;;44.37;33.88;100988.81;4971935;28;45478;-95
2022/08/13 11:02:53;;;;;;;;;4.33;3.00;;;;;46.51;32.63;100988.78;4982910;28;45598;-94
2022/08/13 11:05:22;;;;;;;;;4.00;3.00;;;;;48.45;31.34;100991.03;4972840;28;56573;-95
2022/08/13 11:07:49;;;;;;;;;6.33;4.00;;;;;50.21;30.29;100995.63;4972242;28;45448;-95
2022/08/13 11:10:14;;;;;;;;;3.67;3.67;;;;;51.73;29.13;101007.53;4963544;28;45517;-94
2022/08/13 11:15:22;;;;;;;;;4.00;4.00;;;;;54.23;26.98;100993.97;4992429;23;46469;-94
2022/08/13 11:17:56;;;;;;;;;3.00;3.00;;;;;55.31;25.66;101005.94;4994774;28;44651;-95
2022/08/13 11:20:24;;;;;;;;;3.00;2.00;;;;;56.08;24.88;100988.31;4998588;28;45510;-93
2022/08/13 11:22:55;;;;;;;;;2.67;2.67;;;;;56.97;23.82;100989.03;4997526;28;44656;-95
2022/08/13 11:25:23;;;;;;;;;3.00;3.00;;;;;57.83;24.03;100992.72;4981779;28;45587;-94
2022/08/13 11:27:49;;;;;;;;;2.67;2.67;;;;;58.78;23.25;101001.34;4969793;28;45323;-94
2022/08/13 11:30:16;;;;;;;;;1.00;1.00;;;;;59.44;22.80;100987.06;4983411;28;45226;-93
2022/08/13 11:32:42;;;;;;;;;2.33;2.33;;;;;60.23;22.08;101001.34;4993944;28;44793;-93
2022/08/13 11:35:10;;;;;;;;;3.00;3.00;;;;;60.87;21.35;101003.00;4975021;28;46198;-93
2022/08/13 11:37:36;;;;;;;;;2.00;2.00;;;;;61.42;21.74;100987.97;4968072;28;45372;-95
2022/08/13 11:40:03;;;;;;;;;2.00;2.00;;;;;61.99;21.19;100994.06;4964724;28;45396;-94
2022/08/13 11:42:29;;;;;;;;;2.00;2.00;;;;;62.46;20.49;100991.50;4981299;28;45367;-94
2022/08/13 11:44:56;;;;;;;;;2.00;2.00;;;;;62.87;20.35;100987.06;4970526;28;47405;-95
2022/08/13 11:47:22;;;;;;;;;2.00;2.00;;;;;63.32;19.20;100988.56;4964228;28;45327;-95